sensor_id;sensor_type;location;lat;lon;timestamp;P1;durP1;ratioP1;P2;durP2;ratioP2
2055;SDS011;1033;52.560;13.374;2023-03-21T00:02:18;14.32;;;10.80;;
2055;SDS011;1033;52.560;13.374;2023-03-21T00:04:49;12.57;;;10.15;;
2055;SDS011;1033;52.560;13.374;2023-03-21T00:07:22;14.90;;;10.05;;
2055;SDS011;1033;52.560;13.374;2023-03-21T00:09:52;14.40;;;9.75;;
2055;SDS011;1033;52.560;13.374;2023-03-21T00:12:30;8.98;;;7.97;;
2055;SDS011;1033;52.560;13.374;2023-03-21T00:15:05;13.05;;;9.05;;
2055;SDS011;1033;52.560;13.374;2023-03-21T00:17:48;15.43;;;9.07;;
2055;SDS011;1033;52.560;13.374;2023-03-21T00:20:19;12.25;;;9.43;;
2055;SDS011;1033;52.560;13.374;2023-03-21T00:22:49;10.18;;;8.50;;
2055;SDS011;1033;52.560;13.374;2023-03-21T00:25:19;11.57;;;7.65;;
2055;SDS011;1033;52.560;13.374;2023-03-21T00:28:09;10.55;;;8.30;;
2055;SDS011;1033;52.560;13.374;2023-03-21T00:30:41;10.65;;;8.57;;
2055;SDS011;1033;52.560;13.374;2023-03-21T00:33:10;12.27;;;8.93;;
2055;SDS011;1033;52.560;13.374;2023-03-21T00:35:51;11.70;;;9.63;;
2055;SDS011;1033;52.560;13.374;2023-03-21T00:38:32;10.30;;;9.27;;
2055;SDS011;1033;52.560;13.374;2023-03-21T00:41:03;8.88;;;8.00;;
2055;SDS011;1033;52.560;13.374;2023-03-21T00:43:49;10.98;;;8.73;;
2055;SDS011;1033;52.560;13.374;2023-03-21T00:46:22;12.52;;;7.85;;
2055;SDS011;1033;52.560;13.374;2023-03-21T00:49:01;17.25;;;8.20;;
2055;SDS011;1033;52.560;13.374;2023-03-21T00:51:30;9.88;;;8.93;;
2055;SDS011;1033;52.560;13.374;2023-03-21T00:54:00;10.02;;;8.50;;
2055;SDS011;1033;52.560;13.374;2023-03-21T00:56:31;12.02;;;9.25;;
2055;SDS011;1033;52.560;13.374;2023-03-21T00:59:00;10.55;;;9.40;;
2055;SDS011;1033;52.560;13.374;2023-03-21T01:01:31;12.38;;;9.50;;
2055;SDS011;1033;52.560;13.374;2023-03-21T01:04:05;12.63;;;9.30;;
2055;SDS011;1033;52.560;13.374;2023-03-21T01:06:39;13.52;;;8.90;;
2055;SDS011;1033;52.560;13.374;2023-03-21T01:09:12;11.05;;;9.95;;
2055;SDS011;1033;52.560;13.374;2023-03-21T01:11:43;13.70;;;10.23;;
2055;SDS011;1033;52.560;13.374;2023-03-21T01:14:12;19.95;;;11.40;;
2055;SDS011;1033;52.560;13.374;2023-03-21T01:16:53;10.63;;;9.50;;
2055;SDS011;1033;52.560;13.374;2023-03-21T01:19:24;14.00;;;10.80;;
2055;SDS011;1033;52.560;13.374;2023-03-21T01:22:14;15.20;;;11.65;;
2055;SDS011;1033;52.560;13.374;2023-03-21T01:24:43;16.45;;;12.48;;
2055;SDS011;1033;52.560;13.374;2023-03-21T01:27:34;18.13;;;13.27;;
2055;SDS011;1033;52.560;13.374;2023-03-21T01:30:03;18.30;;;12.95;;
2055;SDS011;1033;52.560;13.374;2023-03-21T01:32:47;19.67;;;13.68;;
2055;SDS011;1033;52.560;13.374;2023-03-21T01:35:16;17.05;;;12.98;;
2055;SDS011;1033;52.560;13.374;2023-03-21T01:37:45;23.55;;;13.60;;
2055;SDS011;1033;52.560;13.374;2023-03-21T01:40:16;18.48;;;14.63;;
2055;SDS011;1033;52.560;13.374;2023-03-21T01:42:50;17.55;;;13.90;;
2055;SDS011;1033;52.560;13.374;2023-03-21T01:49:02;19.65;;;14.20;;
2055;SDS011;1033;52.560;13.374;2023-03-21T01:51:37;22.70;;;14.55;;
2055;SDS011;1033;52.560;13.374;2023-03-21T01:54:10;17.52;;;15.32;;
2055;SDS011;1033;52.560;13.374;2023-03-21T01:56:44;27.58;;;15.00;;
2055;SDS011;1033;52.560;13.374;2023-03-21T01:59:16;19.85;;;13.40;;
2055;SDS011;1033;52.560;13.374;2023-03-21T02:02:27;19.42;;;14.57;;
2055;SDS011;1033;52.560;13.374;2023-03-21T02:05:09;17.70;;;14.13;;
2055;SDS011;1033;52.560;13.374;2023-03-21T02:07:38;22.42;;;16.05;;
2055;SDS011;1033;52.560;13.374;2023-03-21T02:10:15;21.58;;;15.35;;
2055;SDS011;1033;52.560;13.374;2023-03-21T02:12:49;21.05;;;16.30;;
2055;SDS011;1033;52.560;13.374;2023-03-21T02:15:20;17.85;;;15.50;;
2055;SDS011;1033;52.560;13.374;2023-03-21T02:18:01;20.85;;;16.45;;
2055;SDS011;1033;52.560;13.374;2023-03-21T02:20:52;22.88;;;17.13;;
2055;SDS011;1033;52.560;13.374;2023-03-21T02:23:51;23.95;;;19.17;;
2055;SDS011;1033;52.560;13.374;2023-03-21T02:26:53;25.27;;;20.17;;
2055;SDS011;1033;52.560;13.374;2023-03-21T02:36:25;24.02;;;20.13;;
2055;SDS011;1033;52.560;13.374;2023-03-21T02:39:09;25.50;;;20.67;;
2055;SDS011;1033;52.560;13.374;2023-03-21T02:41:45;27.20;;;21.48;;
2055;SDS011;1033;52.560;13.374;2023-03-21T02:44:29;45.58;;;24.85;;
2055;SDS011;1033;52.560;13.374;2023-03-21T02:47:08;32.90;;;23.15;;
2055;SDS011;1033;52.560;13.374;2023-03-21T02:49:43;31.85;;;24.52;;
2055;SDS011;1033;52.560;13.374;2023-03-21T02:52:19;34.03;;;22.80;;
2055;SDS011;1033;52.560;13.374;2023-03-21T02:55:08;30.88;;;23.20;;
2055;SDS011;1033;52.560;13.374;2023-03-21T02:57:50;31.90;;;24.73;;
2055;SDS011;1033;52.560;13.374;2023-03-21T03:00:23;36.53;;;24.10;;
2055;SDS011;1033;52.560;13.374;2023-03-21T03:02:56;32.97;;;25.50;;
2055;SDS011;1033;52.560;13.374;2023-03-21T03:05:39;33.13;;;25.45;;
2055;SDS011;1033;52.560;13.374;2023-03-21T03:11:28;32.00;;;24.27;;
2055;SDS011;1033;52.560;13.374;2023-03-21T03:14:05;35.85;;;24.85;;
2055;SDS011;1033;52.560;13.374;2023-03-21T03:17:09;35.72;;;25.75;;
2055;SDS011;1033;52.560;13.374;2023-03-21T03:19:51;35.90;;;24.38;;
2055;SDS011;1033;52.560;13.374;2023-03-21T03:22:45;31.73;;;22.20;;
2055;SDS011;1033;52.560;13.374;2023-03-21T03:25:23;35.05;;;23.25;;
2055;SDS011;1033;52.560;13.374;2023-03-21T03:28:13;36.42;;;22.73;;
2055;SDS011;1033;52.560;13.374;2023-03-21T03:30:47;53.55;;;24.42;;
2055;SDS011;1033;52.560;13.374;2023-03-21T03:33:39;32.22;;;24.77;;
2055;SDS011;1033;52.560;13.374;2023-03-21T03:36:12;44.20;;;24.27;;
2055;SDS011;1033;52.560;13.374;2023-03-21T03:38:59;32.90;;;24.42;;
2055;SDS011;1033;52.560;13.374;2023-03-21T03:41:34;39.25;;;23.90;;
2055;SDS011;1033;52.560;13.374;2023-03-21T03:44:33;39.08;;;24.67;;
2055;SDS011;1033;52.560;13.374;2023-03-21T03:47:06;31.45;;;23.10;;
2055;SDS011;1033;52.560;13.374;2023-03-21T03:49:53;31.13;;;23.48;;
2055;SDS011;1033;52.560;13.374;2023-03-21T03:52:31;36.30;;;23.83;;
2055;SDS011;1033;52.560;13.374;2023-03-21T03:55:21;33.30;;;24.70;;
2055;SDS011;1033;52.560;13.374;2023-03-21T04:01:44;34.15;;;23.70;;
2055;SDS011;1033;52.560;13.374;2023-03-21T04:04:13;38.22;;;24.90;;
2055;SDS011;1033;52.560;13.374;2023-03-21T04:06:43;34.47;;;24.55;;
2055;SDS011;1033;52.560;13.374;2023-03-21T04:09:21;33.97;;;26.25;;
2055;SDS011;1033;52.560;13.374;2023-03-21T04:12:09;32.15;;;22.92;;
2055;SDS011;1033;52.560;13.374;2023-03-21T04:14:41;38.20;;;26.00;;
2055;SDS011;1033;52.560;13.374;2023-03-21T04:17:16;31.38;;;24.35;;
2055;SDS011;1033;52.560;13.374;2023-03-21T04:19:46;36.05;;;25.83;;
2055;SDS011;1033;52.560;13.374;2023-03-21T04:22:23;32.78;;;23.08;;
2055;SDS011;1033;52.560;13.374;2023-03-21T04:24:52;35.40;;;23.50;;
2055;SDS011;1033;52.560;13.374;2023-03-21T04:27:22;41.38;;;25.70;;
2055;SDS011;1033;52.560;13.374;2023-03-21T04:30:04;35.35;;;23.52;;
2055;SDS011;1033;52.560;13.374;2023-03-21T04:32:48;41.38;;;24.30;;
2055;SDS011;1033;52.560;13.374;2023-03-21T04:35:24;37.95;;;24.40;;
2055;SDS011;1033;52.560;13.374;2023-03-21T04:37:54;35.97;;;24.75;;
2055;SDS011;1033;52.560;13.374;2023-03-21T04:40:23;32.40;;;23.42;;
2055;SDS011;1033;52.560;13.374;2023-03-21T04:42:54;34.45;;;24.23;;
2055;SDS011;1033;52.560;13.374;2023-03-21T04:45:23;32.80;;;22.38;;
2055;SDS011;1033;52.560;13.374;2023-03-21T04:47:54;33.53;;;23.92;;
2055;SDS011;1033;52.560;13.374;2023-03-21T04:50:24;34.60;;;21.65;;
2055;SDS011;1033;52.560;13.374;2023-03-21T04:52:53;37.70;;;24.27;;
2055;SDS011;1033;52.560;13.374;2023-03-21T04:55:22;41.13;;;27.50;;
2055;SDS011;1033;52.560;13.374;2023-03-21T04:57:53;39.45;;;23.60;;
2055;SDS011;1033;52.560;13.374;2023-03-21T05:00:23;37.33;;;24.67;;
2055;SDS011;1033;52.560;13.374;2023-03-21T05:02:54;30.00;;;21.52;;
2055;SDS011;1033;52.560;13.374;2023-03-21T05:05:25;41.60;;;25.00;;
2055;SDS011;1033;52.560;13.374;2023-03-21T05:07:54;33.58;;;24.63;;
2055;SDS011;1033;52.560;13.374;2023-03-21T05:10:24;35.63;;;22.42;;
2055;SDS011;1033;52.560;13.374;2023-03-21T05:12:53;40.42;;;25.65;;
2055;SDS011;1033;52.560;13.374;2023-03-21T05:15:22;39.08;;;23.88;;
2055;SDS011;1033;52.560;13.374;2023-03-21T05:17:51;37.15;;;24.90;;
2055;SDS011;1033;52.560;13.374;2023-03-21T05:20:24;38.55;;;24.80;;
2055;SDS011;1033;52.560;13.374;2023-03-21T05:22:53;36.05;;;22.30;;
2055;SDS011;1033;52.560;13.374;2023-03-21T05:25:22;38.58;;;23.45;;
2055;SDS011;1033;52.560;13.374;2023-03-21T05:28:07;38.03;;;24.80;;
2055;SDS011;1033;52.560;13.374;2023-03-21T05:30:37;36.25;;;23.83;;
2055;SDS011;1033;52.560;13.374;2023-03-21T05:33:08;41.13;;;25.63;;
2055;SDS011;1033;52.560;13.374;2023-03-21T05:35:37;41.38;;;24.58;;
2055;SDS011;1033;52.560;13.374;2023-03-21T05:38:09;39.55;;;24.00;;
2055;SDS011;1033;52.560;13.374;2023-03-21T05:40:47;38.42;;;23.23;;
2055;SDS011;1033;52.560;13.374;2023-03-21T05:43:17;36.20;;;25.60;;
2055;SDS011;1033;52.560;13.374;2023-03-21T05:45:46;43.00;;;24.60;;
2055;SDS011;1033;52.560;13.374;2023-03-21T05:48:18;37.33;;;24.10;;
2055;SDS011;1033;52.560;13.374;2023-03-21T05:51:06;38.88;;;24.05;;
2055;SDS011;1033;52.560;13.374;2023-03-21T05:53:35;40.08;;;22.30;;
2055;SDS011;1033;52.560;13.374;2023-03-21T05:56:05;41.33;;;25.67;;
2055;SDS011;1033;52.560;13.374;2023-03-21T05:59:01;43.42;;;25.45;;
2055;SDS011;1033;52.560;13.374;2023-03-21T06:01:37;43.38;;;24.30;;
2055;SDS011;1033;52.560;13.374;2023-03-21T06:04:16;37.45;;;23.85;;
2055;SDS011;1033;52.560;13.374;2023-03-21T06:06:46;33.75;;;21.67;;
2055;SDS011;1033;52.560;13.374;2023-03-21T06:09:17;37.35;;;24.90;;
2055;SDS011;1033;52.560;13.374;2023-03-21T06:11:54;36.47;;;23.63;;
2055;SDS011;1033;52.560;13.374;2023-03-21T06:14:39;36.25;;;22.63;;
2055;SDS011;1033;52.560;13.374;2023-03-21T06:17:23;38.15;;;23.45;;
2055;SDS011;1033;52.560;13.374;2023-03-21T06:20:05;39.08;;;22.48;;
2055;SDS011;1033;52.560;13.374;2023-03-21T06:22:44;35.42;;;21.70;;
2055;SDS011;1033;52.560;13.374;2023-03-21T06:25:20;35.00;;;21.55;;
2055;SDS011;1033;52.560;13.374;2023-03-21T06:27:51;37.88;;;25.33;;
2055;SDS011;1033;52.560;13.374;2023-03-21T06:30:20;43.83;;;23.45;;
2055;SDS011;1033;52.560;13.374;2023-03-21T06:33:02;35.50;;;22.90;;
2055;SDS011;1033;52.560;13.374;2023-03-21T06:35:33;37.58;;;22.67;;
2055;SDS011;1033;52.560;13.374;2023-03-21T06:38:03;33.47;;;22.45;;
2055;SDS011;1033;52.560;13.374;2023-03-21T06:40:32;39.85;;;23.75;;
2055;SDS011;1033;52.560;13.374;2023-03-21T06:43:02;38.80;;;24.65;;
2055;SDS011;1033;52.560;13.374;2023-03-21T06:45:37;35.88;;;22.45;;
2055;SDS011;1033;52.560;13.374;2023-03-21T06:48:08;33.50;;;21.52;;
2055;SDS011;1033;52.560;13.374;2023-03-21T06:50:48;37.13;;;21.08;;
2055;SDS011;1033;52.560;13.374;2023-03-21T06:53:20;38.47;;;23.77;;
2055;SDS011;1033;52.560;13.374;2023-03-21T06:56:12;36.70;;;22.90;;
2055;SDS011;1033;52.560;13.374;2023-03-21T06:58:43;45.83;;;26.83;;
2055;SDS011;1033;52.560;13.374;2023-03-21T07:01:27;36.78;;;23.90;;
2055;SDS011;1033;52.560;13.374;2023-03-21T07:04:04;39.92;;;25.10;;
2055;SDS011;1033;52.560;13.374;2023-03-21T07:06:35;39.95;;;23.58;;
2055;SDS011;1033;52.560;13.374;2023-03-21T07:09:05;45.97;;;23.88;;
2055;SDS011;1033;52.560;13.374;2023-03-21T07:11:36;38.58;;;22.58;;
2055;SDS011;1033;52.560;13.374;2023-03-21T07:14:05;39.67;;;25.27;;
2055;SDS011;1033;52.560;13.374;2023-03-21T07:16:34;34.83;;;23.80;;
2055;SDS011;1033;52.560;13.374;2023-03-21T07:19:03;38.00;;;24.97;;
2055;SDS011;1033;52.560;13.374;2023-03-21T07:21:33;37.88;;;23.52;;
2055;SDS011;1033;52.560;13.374;2023-03-21T07:24:04;38.15;;;24.05;;
2055;SDS011;1033;52.560;13.374;2023-03-21T07:26:34;37.35;;;23.20;;
2055;SDS011;1033;52.560;13.374;2023-03-21T07:29:04;38.28;;;23.90;;
2055;SDS011;1033;52.560;13.374;2023-03-21T07:31:33;38.35;;;23.17;;
2055;SDS011;1033;52.560;13.374;2023-03-21T07:34:03;45.13;;;27.58;;
2055;SDS011;1033;52.560;13.374;2023-03-21T07:36:33;40.60;;;24.02;;
2055;SDS011;1033;52.560;13.374;2023-03-21T07:39:06;46.03;;;28.15;;
2055;SDS011;1033;52.560;13.374;2023-03-21T07:41:36;42.60;;;25.90;;
2055;SDS011;1033;52.560;13.374;2023-03-21T07:44:19;36.65;;;24.75;;
2055;SDS011;1033;52.560;13.374;2023-03-21T07:46:56;40.25;;;23.55;;
2055;SDS011;1033;52.560;13.374;2023-03-21T07:49:25;38.75;;;26.15;;
2055;SDS011;1033;52.560;13.374;2023-03-21T07:51:55;42.78;;;28.08;;
2055;SDS011;1033;52.560;13.374;2023-03-21T07:54:26;38.50;;;24.48;;
2055;SDS011;1033;52.560;13.374;2023-03-21T07:56:56;36.90;;;23.50;;
2055;SDS011;1033;52.560;13.374;2023-03-21T07:59:25;37.42;;;24.15;;
2055;SDS011;1033;52.560;13.374;2023-03-21T08:01:54;36.38;;;24.88;;
2055;SDS011;1033;52.560;13.374;2023-03-21T08:04:24;37.85;;;23.83;;
2055;SDS011;1033;52.560;13.374;2023-03-21T08:06:53;36.08;;;23.33;;
2055;SDS011;1033;52.560;13.374;2023-03-21T08:09:23;36.00;;;22.63;;
2055;SDS011;1033;52.560;13.374;2023-03-21T08:11:53;41.97;;;26.63;;
2055;SDS011;1033;52.560;13.374;2023-03-21T08:14:25;40.85;;;26.05;;
2055;SDS011;1033;52.560;13.374;2023-03-21T08:16:54;42.25;;;22.83;;
2055;SDS011;1033;52.560;13.374;2023-03-21T08:19:23;37.88;;;24.02;;
2055;SDS011;1033;52.560;13.374;2023-03-21T08:21:53;45.70;;;25.17;;
2055;SDS011;1033;52.560;13.374;2023-03-21T08:24:25;41.70;;;25.15;;
2055;SDS011;1033;52.560;13.374;2023-03-21T08:26:57;47.28;;;30.00;;
2055;SDS011;1033;52.560;13.374;2023-03-21T08:29:26;47.75;;;27.23;;
2055;SDS011;1033;52.560;13.374;2023-03-21T08:31:55;38.30;;;25.15;;
2055;SDS011;1033;52.560;13.374;2023-03-21T08:34:25;41.85;;;26.60;;
2055;SDS011;1033;52.560;13.374;2023-03-21T08:36:54;38.80;;;24.13;;
2055;SDS011;1033;52.560;13.374;2023-03-21T08:39:24;38.50;;;24.50;;
2055;SDS011;1033;52.560;13.374;2023-03-21T08:41:54;41.93;;;24.93;;
2055;SDS011;1033;52.560;13.374;2023-03-21T08:44:24;33.47;;;22.13;;
2055;SDS011;1033;52.560;13.374;2023-03-21T08:46:53;37.20;;;22.30;;
2055;SDS011;1033;52.560;13.374;2023-03-21T08:49:23;35.60;;;23.70;;
2055;SDS011;1033;52.560;13.374;2023-03-21T08:51:54;35.80;;;22.70;;
2055;SDS011;1033;52.560;13.374;2023-03-21T08:54:23;37.40;;;22.60;;
2055;SDS011;1033;52.560;13.374;2023-03-21T08:56:52;35.10;;;22.10;;
2055;SDS011;1033;52.560;13.374;2023-03-21T08:59:22;31.17;;;22.17;;
2055;SDS011;1033;52.560;13.374;2023-03-21T09:01:52;40.93;;;22.60;;
2055;SDS011;1033;52.560;13.374;2023-03-21T09:04:21;35.80;;;22.03;;
2055;SDS011;1033;52.560;13.374;2023-03-21T09:06:51;28.60;;;20.80;;
2055;SDS011;1033;52.560;13.374;2023-03-21T09:09:21;35.83;;;22.90;;
2055;SDS011;1033;52.560;13.374;2023-03-21T09:11:50;40.50;;;20.55;;
2055;SDS011;1033;52.560;13.374;2023-03-21T09:14:20;39.22;;;21.35;;
2055;SDS011;1033;52.560;13.374;2023-03-21T09:16:55;32.53;;;19.60;;
2055;SDS011;1033;52.560;13.374;2023-03-21T09:19:26;32.63;;;20.80;;
2055;SDS011;1033;52.560;13.374;2023-03-21T09:21:55;31.93;;;20.90;;
2055;SDS011;1033;52.560;13.374;2023-03-21T09:24:25;27.60;;;19.00;;
2055;SDS011;1033;52.560;13.374;2023-03-21T09:26:54;29.77;;;18.30;;
2055;SDS011;1033;52.560;13.374;2023-03-21T09:29:24;35.70;;;20.33;;
2055;SDS011;1033;52.560;13.374;2023-03-21T09:31:53;33.00;;;17.60;;
2055;SDS011;1033;52.560;13.374;2023-03-21T09:34:24;29.33;;;19.70;;
2055;SDS011;1033;52.560;13.374;2023-03-21T09:36:53;31.77;;;19.37;;
2055;SDS011;1033;52.560;13.374;2023-03-21T09:39:23;28.77;;;18.30;;
2055;SDS011;1033;52.560;13.374;2023-03-21T09:42:05;33.37;;;21.40;;
2055;SDS011;1033;52.560;13.374;2023-03-21T09:44:50;29.13;;;18.93;;
2055;SDS011;1033;52.560;13.374;2023-03-21T09:47:29;29.50;;;19.90;;
2055;SDS011;1033;52.560;13.374;2023-03-21T09:50:11;23.77;;;18.57;;
2055;SDS011;1033;52.560;13.374;2023-03-21T09:52:46;28.57;;;18.47;;
2055;SDS011;1033;52.560;13.374;2023-03-21T09:55:19;23.37;;;16.83;;
2055;SDS011;1033;52.560;13.374;2023-03-21T09:57:54;25.00;;;17.70;;
2055;SDS011;1033;52.560;13.374;2023-03-21T10:00:34;27.77;;;19.80;;
2055;SDS011;1033;52.560;13.374;2023-03-21T10:03:10;28.77;;;18.90;;
2055;SDS011;1033;52.560;13.374;2023-03-21T10:05:50;28.50;;;19.77;;
2055;SDS011;1033;52.560;13.374;2023-03-21T10:08:24;29.13;;;18.17;;
2055;SDS011;1033;52.560;13.374;2023-03-21T10:10:57;32.80;;;20.63;;
2055;SDS011;1033;52.560;13.374;2023-03-21T10:13:31;31.47;;;19.90;;
2055;SDS011;1033;52.560;13.374;2023-03-21T10:16:05;34.73;;;18.77;;
2055;SDS011;1033;52.560;13.374;2023-03-21T10:18:46;32.87;;;19.93;;
2055;SDS011;1033;52.560;13.374;2023-03-21T10:21:18;28.87;;;18.70;;
2055;SDS011;1033;52.560;13.374;2023-03-21T10:24:12;32.80;;;19.90;;
2055;SDS011;1033;52.560;13.374;2023-03-21T10:26:44;32.67;;;20.17;;
2055;SDS011;1033;52.560;13.374;2023-03-21T10:29:16;34.23;;;20.33;;
2055;SDS011;1033;52.560;13.374;2023-03-21T10:31:49;27.77;;;19.37;;
2055;SDS011;1033;52.560;13.374;2023-03-21T10:34:22;30.27;;;18.90;;
2055;SDS011;1033;52.560;13.374;2023-03-21T10:36:59;31.87;;;20.00;;
2055;SDS011;1033;52.560;13.374;2023-03-21T10:39:43;30.47;;;18.90;;
2055;SDS011;1033;52.560;13.374;2023-03-21T10:42:23;34.07;;;20.67;;
2055;SDS011;1033;52.560;13.374;2023-03-21T10:44:58;34.27;;;22.13;;
2055;SDS011;1033;52.560;13.374;2023-03-21T10:47:33;35.83;;;20.93;;
2055;SDS011;1033;52.560;13.374;2023-03-21T10:50:15;26.10;;;17.13;;
2055;SDS011;1033;52.560;13.374;2023-03-21T10:53:05;29.13;;;18.47;;
2055;SDS011;1033;52.560;13.374;2023-03-21T10:55:47;28.20;;;18.50;;
2055;SDS011;1033;52.560;13.374;2023-03-21T10:58:23;28.80;;;18.50;;
2055;SDS011;1033;52.560;13.374;2023-03-21T11:01:04;27.40;;;18.20;;
2055;SDS011;1033;52.560;13.374;2023-03-21T11:14:41;31.07;;;17.57;;
2055;SDS011;1033;52.560;13.374;2023-03-21T11:20:20;28.47;;;17.00;;
2055;SDS011;1033;52.560;13.374;2023-03-21T11:28:39;21.60;;;15.40;;
2055;SDS011;1033;52.560;13.374;2023-03-21T11:31:12;25.73;;;16.03;;
2055;SDS011;1033;52.560;13.374;2023-03-21T11:33:42;25.17;;;16.10;;
2055;SDS011;1033;52.560;13.374;2023-03-21T11:36:26;22.60;;;15.53;;
2055;SDS011;1033;52.560;13.374;2023-03-21T11:39:20;22.93;;;17.10;;
2055;SDS011;1033;52.560;13.374;2023-03-21T11:41:58;28.23;;;17.43;;
2055;SDS011;1033;52.560;13.374;2023-03-21T11:44:32;27.20;;;16.33;;
2055;SDS011;1033;52.560;13.374;2023-03-21T11:47:11;28.40;;;19.40;;
2055;SDS011;1033;52.560;13.374;2023-03-21T11:49:53;21.73;;;15.07;;
2055;SDS011;1033;52.560;13.374;2023-03-21T11:52:33;25.27;;;16.77;;
2055;SDS011;1033;52.560;13.374;2023-03-21T11:55:22;23.87;;;13.50;;
2055;SDS011;1033;52.560;13.374;2023-03-21T11:58:12;22.50;;;13.53;;
2055;SDS011;1033;52.560;13.374;2023-03-21T12:01:02;25.07;;;16.13;;
2055;SDS011;1033;52.560;13.374;2023-03-21T12:03:54;32.50;;;17.77;;
2055;SDS011;1033;52.560;13.374;2023-03-21T12:06:32;23.47;;;16.80;;
2055;SDS011;1033;52.560;13.374;2023-03-21T12:09:07;20.27;;;15.30;;
2055;SDS011;1033;52.560;13.374;2023-03-21T12:11:53;21.67;;;16.20;;
2055;SDS011;1033;52.560;13.374;2023-03-21T12:14:36;19.07;;;15.53;;
2055;SDS011;1033;52.560;13.374;2023-03-21T12:17:20;18.83;;;14.73;;
2055;SDS011;1033;52.560;13.374;2023-03-21T12:20:24;19.37;;;14.03;;
2055;SDS011;1033;52.560;13.374;2023-03-21T12:23:17;20.77;;;14.03;;
2055;SDS011;1033;52.560;13.374;2023-03-21T12:25:59;23.53;;;15.40;;
2055;SDS011;1033;52.560;13.374;2023-03-21T12:28:50;19.83;;;15.23;;
2055;SDS011;1033;52.560;13.374;2023-03-21T12:31:52;19.90;;;14.23;;
2055;SDS011;1033;52.560;13.374;2023-03-21T12:34:42;25.50;;;15.70;;
2055;SDS011;1033;52.560;13.374;2023-03-21T12:37:26;24.37;;;16.77;;
2055;SDS011;1033;52.560;13.374;2023-03-21T12:40:08;19.77;;;14.23;;
2055;SDS011;1033;52.560;13.374;2023-03-21T12:42:48;18.73;;;13.17;;
2055;SDS011;1033;52.560;13.374;2023-03-21T12:45:40;20.53;;;14.77;;
2055;SDS011;1033;52.560;13.374;2023-03-21T12:48:15;19.43;;;14.90;;
2055;SDS011;1033;52.560;13.374;2023-03-21T12:50:50;19.10;;;14.20;;
2055;SDS011;1033;52.560;13.374;2023-03-21T12:53:30;26.87;;;18.70;;
2055;SDS011;1033;52.560;13.374;2023-03-21T12:56:10;22.80;;;15.80;;
2055;SDS011;1033;52.560;13.374;2023-03-21T12:58:48;23.80;;;15.37;;
2055;SDS011;1033;52.560;13.374;2023-03-21T13:01:23;17.60;;;14.37;;
2055;SDS011;1033;52.560;13.374;2023-03-21T13:04:01;17.70;;;14.03;;
2055;SDS011;1033;52.560;13.374;2023-03-21T13:06:50;20.47;;;14.77;;
2055;SDS011;1033;52.560;13.374;2023-03-21T13:09:26;19.30;;;15.43;;
2055;SDS011;1033;52.560;13.374;2023-03-21T13:12:12;18.50;;;15.00;;
2055;SDS011;1033;52.560;13.374;2023-03-21T13:15:00;21.60;;;14.00;;
2055;SDS011;1033;52.560;13.374;2023-03-21T13:17:55;20.90;;;15.00;;
2055;SDS011;1033;52.560;13.374;2023-03-21T13:20:31;19.90;;;14.70;;
2055;SDS011;1033;52.560;13.374;2023-03-21T13:23:09;21.13;;;14.03;;
2055;SDS011;1033;52.560;13.374;2023-03-21T13:25:42;27.40;;;16.73;;
2055;SDS011;1033;52.560;13.374;2023-03-21T13:28:18;17.17;;;13.57;;
2055;SDS011;1033;52.560;13.374;2023-03-21T13:30:51;22.03;;;16.80;;
2055;SDS011;1033;52.560;13.374;2023-03-21T13:33:24;19.53;;;15.00;;
2055;SDS011;1033;52.560;13.374;2023-03-21T13:35:59;21.90;;;16.07;;
2055;SDS011;1033;52.560;13.374;2023-03-21T13:38:35;23.27;;;15.40;;
2055;SDS011;1033;52.560;13.374;2023-03-21T13:41:07;20.27;;;13.93;;
2055;SDS011;1033;52.560;13.374;2023-03-21T13:43:42;21.00;;;16.77;;
2055;SDS011;1033;52.560;13.374;2023-03-21T13:46:13;19.10;;;14.00;;
2055;SDS011;1033;52.560;13.374;2023-03-21T13:49:24;20.23;;;12.97;;
2055;SDS011;1033;52.560;13.374;2023-03-21T13:51:55;22.33;;;11.97;;
2055;SDS011;1033;52.560;13.374;2023-03-21T13:57:21;16.10;;;11.07;;
2055;SDS011;1033;52.560;13.374;2023-03-21T14:00:15;15.17;;;10.10;;
2055;SDS011;1033;52.560;13.374;2023-03-21T14:02:56;14.17;;;11.77;;
2055;SDS011;1033;52.560;13.374;2023-03-21T14:05:29;19.20;;;12.60;;
2055;SDS011;1033;52.560;13.374;2023-03-21T14:08:02;15.70;;;11.37;;
2055;SDS011;1033;52.560;13.374;2023-03-21T14:10:52;11.67;;;10.47;;
2055;SDS011;1033;52.560;13.374;2023-03-21T14:13:34;19.43;;;11.13;;
2055;SDS011;1033;52.560;13.374;2023-03-21T14:16:15;19.60;;;10.77;;
2055;SDS011;1033;52.560;13.374;2023-03-21T14:18:46;19.67;;;12.20;;
2055;SDS011;1033;52.560;13.374;2023-03-21T14:21:21;13.93;;;11.33;;
2055;SDS011;1033;52.560;13.374;2023-03-21T14:23:56;12.93;;;10.67;;
2055;SDS011;1033;52.560;13.374;2023-03-21T14:26:26;15.57;;;11.60;;
2055;SDS011;1033;52.560;13.374;2023-03-21T14:29:00;12.80;;;10.20;;
2055;SDS011;1033;52.560;13.374;2023-03-21T14:31:44;17.70;;;11.43;;
2055;SDS011;1033;52.560;13.374;2023-03-21T14:34:14;16.53;;;11.10;;
2055;SDS011;1033;52.560;13.374;2023-03-21T14:36:44;14.73;;;11.70;;
2055;SDS011;1033;52.560;13.374;2023-03-21T14:39:24;17.17;;;12.90;;
2055;SDS011;1033;52.560;13.374;2023-03-21T14:41:55;16.17;;;12.10;;
2055;SDS011;1033;52.560;13.374;2023-03-21T14:44:32;16.30;;;11.80;;
2055;SDS011;1033;52.560;13.374;2023-03-21T14:47:20;14.97;;;11.20;;
2055;SDS011;1033;52.560;13.374;2023-03-21T14:49:50;15.67;;;10.97;;
2055;SDS011;1033;52.560;13.374;2023-03-21T14:52:21;16.13;;;12.43;;
2055;SDS011;1033;52.560;13.374;2023-03-21T14:54:52;18.10;;;11.30;;
2055;SDS011;1033;52.560;13.374;2023-03-21T14:57:24;16.47;;;13.40;;
2055;SDS011;1033;52.560;13.374;2023-03-21T14:59:59;17.03;;;15.23;;
2055;SDS011;1033;52.560;13.374;2023-03-21T15:02:38;16.23;;;10.30;;
2055;SDS011;1033;52.560;13.374;2023-03-21T15:05:14;13.20;;;11.40;;
2055;SDS011;1033;52.560;13.374;2023-03-21T15:07:51;13.40;;;10.80;;
2055;SDS011;1033;52.560;13.374;2023-03-21T15:10:23;15.13;;;10.90;;
2055;SDS011;1033;52.560;13.374;2023-03-21T15:12:54;17.80;;;11.30;;
2055;SDS011;1033;52.560;13.374;2023-03-21T15:15:27;15.23;;;10.93;;
2055;SDS011;1033;52.560;13.374;2023-03-21T15:17:59;14.50;;;10.77;;
2055;SDS011;1033;52.560;13.374;2023-03-21T15:20:33;13.37;;;10.47;;
2055;SDS011;1033;52.560;13.374;2023-03-21T15:23:05;13.33;;;11.93;;
2055;SDS011;1033;52.560;13.374;2023-03-21T15:25:37;16.50;;;10.63;;
2055;SDS011;1033;52.560;13.374;2023-03-21T15:28:08;15.97;;;12.83;;
2055;SDS011;1033;52.560;13.374;2023-03-21T15:30:47;23.13;;;12.97;;
2055;SDS011;1033;52.560;13.374;2023-03-21T15:33:18;12.57;;;10.53;;
2055;SDS011;1033;52.560;13.374;2023-03-21T15:35:48;14.57;;;10.73;;
2055;SDS011;1033;52.560;13.374;2023-03-21T15:38:22;12.87;;;10.70;;
2055;SDS011;1033;52.560;13.374;2023-03-21T15:41:13;15.17;;;12.70;;
2055;SDS011;1033;52.560;13.374;2023-03-21T15:43:53;13.90;;;11.50;;
2055;SDS011;1033;52.560;13.374;2023-03-21T15:46:33;15.07;;;10.90;;
2055;SDS011;1033;52.560;13.374;2023-03-21T15:49:09;16.00;;;10.50;;
2055;SDS011;1033;52.560;13.374;2023-03-21T15:51:46;12.77;;;10.20;;
2055;SDS011;1033;52.560;13.374;2023-03-21T15:54:20;18.90;;;11.30;;
2055;SDS011;1033;52.560;13.374;2023-03-21T15:56:52;13.70;;;11.20;;
2055;SDS011;1033;52.560;13.374;2023-03-21T15:59:22;16.50;;;10.43;;
2055;SDS011;1033;52.560;13.374;2023-03-21T16:01:56;14.37;;;10.90;;
2055;SDS011;1033;52.560;13.374;2023-03-21T16:04:26;15.80;;;10.10;;
2055;SDS011;1033;52.560;13.374;2023-03-21T16:06:59;15.93;;;11.37;;
2055;SDS011;1033;52.560;13.374;2023-03-21T16:09:40;13.80;;;10.27;;